Time;durP1;ratioP1;P1;durP2;ratioP2;P2;SDS_P1;SDS_P2;PMS_P1;PMS_P2;Temp;Humidity;BMP_temperature;BMP_pressure;BME280_temperature;BME280_humidity;BME280_pressure;Samples;Min_cycle;Max_cycle;Signal;HPM_P1;HPM_P2
2021/01/29 00:00:47;;;;;;;7.10;2.97;;;;;;;;;;6283674;22;20096;-87
2021/01/29 00:03:15;;;;;;;5.90;2.63;;;;;;;;;;6281882;22;20051;-86
2021/01/29 00:05:42;;;;;;;8.27;3.00;;;;;;;;;;6281402;22;20503;-86
2021/01/29 00:08:09;;;;;;;11.65;2.72;;;;;;;;;;6281897;22;20054;-86
2021/01/29 00:10:53;;;;;;;7.72;2.85;;;;;;;;;;6232595;22;20047;-86
2021/01/29 00:13:20;;;;;;;10.63;3.33;;;;;;;;;;6253115;22;20042;-86
2021/01/29 00:15:47;;;;;;;9.57;2.70;;;;;;;;;;6254866;22;20027;-86
2021/01/29 00:18:20;;;;;;;7.63;2.70;;;;;;;;;;6279965;22;20424;-86
2021/01/29 00:20:47;;;;;;;8.63;3.15;;;;;;;;;;6253525;22;20397;-86
2021/01/29 00:23:17;;;;;;;8.43;2.80;;;;;;;;;;6280656;22;20023;-86
2021/01/29 00:25:54;;;;;;;9.43;2.85;;;;;;;;;;6254417;22;20075;-86
2021/01/29 00:28:21;;;;;;;10.18;3.10;;;;;;;;;;6281136;22;20046;-86
2021/01/29 00:30:50;;;;;;;10.10;3.17;;;;;;;;;;6282174;22;20114;-86
2021/01/29 00:33:18;;;;;;;9.25;3.17;;;;;;;;;;6255485;22;20069;-86
2021/01/29 00:35:46;;;;;;;5.70;2.38;;;;;;;;;;6255674;22;20023;-86
2021/01/29 00:38:20;;;;;;;6.05;2.72;;;;;;;;;;6257442;22;20098;-86
2021/01/29 00:40:49;;;;;;;4.13;2.65;;;;;;;;;;6298864;22;20028;-86
2021/01/29 00:43:16;;;;;;;5.10;2.53;;;;;;;;;;6299846;22;20016;-86
2021/01/29 00:46:01;;;;;;;7.70;3.22;;;;;;;;;;6273291;22;20012;-86
2021/01/29 00:48:28;;;;;;;9.05;2.90;;;;;;;;;;6273428;22;20023;-87
2021/01/29 00:50:54;;;;;;;10.80;2.75;;;;;;;;;;6263179;22;20467;-86
2021/01/29 00:53:20;;;;;;;7.10;3.10;;;;;;;;;;6268352;22;20028;-86
2021/01/29 00:55:46;;;;;;;11.00;3.22;;;;;;;;;;6285206;22;20077;-86
2021/01/29 00:58:19;;;;;;;8.43;2.75;;;;;;;;;;6284579;22;20082;-86
2021/01/29 01:00:45;;;;;;;8.05;3.65;;;;;;;;;;6282703;22;20243;-86
2021/01/29 01:03:11;;;;;;;5.30;2.67;;;;;;;;;;6284076;22;20208;-86
2021/01/29 01:05:48;;;;;;;11.07;2.70;;;;;;;;;;6256553;22;20035;-86
2021/01/29 01:08:18;;;;;;;5.00;2.83;;;;;;;;;;6256958;22;20028;-86
2021/01/29 01:10:44;;;;;;;7.28;2.95;;;;;;;;;;6256270;22;20035;-86
2021/01/29 01:13:17;;;;;;;8.10;2.70;;;;;;;;;;6255608;22;20027;-86
2021/01/29 01:15:48;;;;;;;8.57;3.33;;;;;;;;;;6257073;22;20030;-86
2021/01/29 01:18:15;;;;;;;8.63;3.05;;;;;;;;;;6256699;22;20028;-86
2021/01/29 01:20:50;;;;;;;5.57;2.75;;;;;;;;;;6256651;22;20062;-86
2021/01/29 01:23:16;;;;;;;4.43;2.42;;;;;;;;;;6283007;22;20039;-86
2021/01/29 01:25:44;;;;;;;5.97;2.92;;;;;;;;;;6258265;22;20024;-86
2021/01/29 01:28:11;;;;;;;6.75;2.90;;;;;;;;;;6284822;22;20500;-86
2021/01/29 01:30:44;;;;;;;11.95;3.13;;;;;;;;;;6282199;22;20038;-86
2021/01/29 01:33:21;;;;;;;9.80;3.25;;;;;;;;;;6256571;22;20062;-86
2021/01/29 01:35:48;;;;;;;7.95;3.17;;;;;;;;;;6283182;22;20053;-86
2021/01/29 01:38:21;;;;;;;7.72;3.05;;;;;;;;;;6254676;22;20020;-86
2021/01/29 01:40:49;;;;;;;5.03;2.88;;;;;;;;;;6255611;22;20081;-86
2021/01/29 01:43:16;;;;;;;4.47;2.67;;;;;;;;;;6271013;22;20015;-86
2021/01/29 01:46:18;;;;;;;9.90;2.45;;;;;;;;;;6275439;22;20064;-86
2021/01/29 01:48:54;;;;;;;7.63;2.50;;;;;;;;;;6243823;22;20395;-86
2021/01/29 01:51:27;;;;;;;6.20;2.67;;;;;;;;;;6264996;22;20032;-86
2021/01/29 01:53:54;;;;;;;4.60;2.55;;;;;;;;;;6290782;22;20363;-86
2021/01/29 01:56:44;;;;;;;5.05;2.97;;;;;;;;;;6299132;22;20051;-86
2021/01/29 01:59:15;;;;;;;9.38;3.08;;;;;;;;;;6268946;22;20034;-86
2021/01/29 02:01:42;;;;;;;8.43;3.20;;;;;;;;;;6258277;22;20096;-86
2021/01/29 02:04:09;;;;;;;7.70;2.92;;;;;;;;;;6283207;22;20023;-86
2021/01/29 02:06:41;;;;;;;6.50;2.88;;;;;;;;;;6281902;22;20038;-86
2021/01/29 02:09:08;;;;;;;6.68;3.40;;;;;;;;;;6257485;22;20028;-86
2021/01/29 02:11:51;;;;;;;6.57;3.03;;;;;;;;;;6283774;22;20035;-86
2021/01/29 02:14:18;;;;;;;9.65;3.53;;;;;;;;;;6265218;22;20034;-86
2021/01/29 02:16:58;;;;;;;8.85;3.05;;;;;;;;;;6261824;22;20031;-86
2021/01/29 02:19:44;;;;;;;8.63;3.53;;;;;;;;;;6256561;22;20024;-86
2021/01/29 02:22:30;;;;;;;8.80;3.83;;;;;;;;;;6257279;22;20036;-86
2021/01/29 02:25:14;;;;;;;13.23;3.28;;;;;;;;;;6284437;22;20023;-86
2021/01/29 02:27:53;;;;;;;10.85;3.95;;;;;;;;;;6283585;22;20028;-86
2021/01/29 02:30:31;;;;;;;6.85;3.95;;;;;;;;;;6256261;22;20301;-86
2021/01/29 02:33:17;;;;;;;8.63;3.97;;;;;;;;;;6282481;22;20332;-86
2021/01/29 02:36:05;;;;;;;10.80;4.18;;;;;;;;;;6281481;22;20050;-86
2021/01/29 02:38:31;;;;;;;11.20;4.50;;;;;;;;;;6255247;22;20023;-87
2021/01/29 02:41:16;;;;;;;12.88;5.10;;;;;;;;;;6255378;22;20175;-86
2021/01/29 02:43:45;;;;;;;10.18;4.80;;;;;;;;;;6256415;22;20054;-86
2021/01/29 02:46:24;;;;;;;9.07;5.15;;;;;;;;;;6255446;22;20038;-87
2021/01/29 02:49:11;;;;;;;8.13;4.93;;;;;;;;;;6254528;22;20066;-87
2021/01/29 02:51:56;;;;;;;12.35;4.82;;;;;;;;;;6284023;22;20035;-86
2021/01/29 02:54:52;;;;;;;9.73;4.07;;;;;;;;;;6259194;22;20058;-86
2021/01/29 02:57:30;;;;;;;15.52;6.07;;;;;;;;;;6256951;22;20024;-87
2021/01/29 03:00:19;;;;;;;10.13;5.43;;;;;;;;;;6299600;22;20043;-87
2021/01/29 03:03:04;;;;;;;13.00;5.60;;;;;;;;;;6276317;22;20087;-86
2021/01/29 03:05:34;;;;;;;13.13;5.88;;;;;;;;;;6303103;22;20051;-86
2021/01/29 03:08:06;;;;;;;11.70;5.75;;;;;;;;;;6302274;22;20216;-87
2021/01/29 03:10:35;;;;;;;9.07;5.45;;;;;;;;;;6260366;22;20034;-86
2021/01/29 03:13:06;;;;;;;10.60;5.82;;;;;;;;;;6259209;22;20030;-87
2021/01/29 03:15:43;;;;;;;11.50;5.75;;;;;;;;;;6286389;22;20024;-86
2021/01/29 03:18:23;;;;;;;12.00;5.47;;;;;;;;;;6228796;23;20024;-87
2021/01/29 03:21:04;;;;;;;15.20;6.07;;;;;;;;;;6227758;23;20041;-87
2021/01/29 03:23:50;;;;;;;10.82;5.88;;;;;;;;;;6227386;23;20070;-87
2021/01/29 03:26:21;;;;;;;12.23;6.63;;;;;;;;;;6250859;23;20393;-86
2021/01/29 03:28:50;;;;;;;12.13;5.25;;;;;;;;;;6225954;23;20051;-87
2021/01/29 03:31:17;;;;;;;11.75;5.90;;;;;;;;;;6226222;23;20031;-86
2021/01/29 03:33:44;;;;;;;12.13;5.38;;;;;;;;;;6226356;23;20066;-87
2021/01/29 03:36:20;;;;;;;15.80;5.93;;;;;;;;;;6252071;23;20020;-87
2021/01/29 03:39:16;;;;;;;11.52;6.03;;;;;;;;;;6226881;23;20024;-86
2021/01/29 03:41:44;;;;;;;9.15;5.40;;;;;;;;;;6232091;23;20024;-86
2021/01/29 03:44:22;;;;;;;13.02;7.38;;;;;;;;;;6227299;23;20086;-86
2021/01/29 03:46:59;;;;;;;10.73;5.95;;;;;;;;;;6230219;23;20346;-86
2021/01/29 03:49:36;;;;;;;13.85;6.93;;;;;;;;;;6238914;23;20024;-87
2021/01/29 03:52:05;;;;;;;;;;;;;;;;;;6240264;23;20042;-86
2021/01/29 03:54:42;;;;;;;13.05;6.88;;;;;;;;;;6266544;23;19945;-87
2021/01/29 03:57:21;;;;;;;11.52;6.75;;;;;;;;;;6239471;23;20054;-86
2021/01/29 04:00:07;;;;;;;10.60;7.18;;;;;;;;;;6240269;23;20413;-86
2021/01/29 04:02:50;;;;;;;12.95;7.18;;;;;;;;;;6250670;23;20038;-87
2021/01/29 04:05:26;;;;;;;17.48;7.53;;;;;;;;;;6236524;23;20028;-87
2021/01/29 04:08:31;;;;;;;15.88;7.15;;;;;;;;;;6263612;23;20024;-87
2021/01/29 04:11:01;;;;;;;12.98;6.85;;;;;;;;;;6218097;23;20080;-87
2021/01/29 04:13:39;;;;;;;20.35;7.97;;;;;;;;;;6259036;23;20473;-86
2021/01/29 04:16:07;;;;;;;12.13;7.13;;;;;;;;;;6237765;22;20020;-87
2021/01/29 04:18:36;;;;;;;13.70;7.57;;;;;;;;;;6285357;22;20024;-87
2021/01/29 04:21:05;;;;;;;14.68;7.65;;;;;;;;;;6284668;22;20028;-87
2021/01/29 04:23:42;;;;;;;9.75;7.30;;;;;;;;;;6291764;22;20027;-86
2021/01/29 04:26:12;;;;;;;14.30;7.60;;;;;;;;;;6295314;22;20027;-86
2021/01/29 04:28:42;;;;;;;14.13;7.88;;;;;;;;;;6290662;22;20043;-87
2021/01/29 04:31:17;;;;;;;11.90;7.38;;;;;;;;;;6285252;22;20023;-86
2021/01/29 04:33:45;;;;;;;9.70;5.63;;;;;;;;;;6284567;22;20114;-86
2021/01/29 04:36:14;;;;;;;12.25;6.75;;;;;;;;;;6285647;22;20034;-87
2021/01/29 04:38:42;;;;;;;16.42;7.43;;;;;;;;;;6286098;22;20375;-86
2021/01/29 04:41:30;;;;;;;15.90;7.35;;;;;;;;;;6285609;22;20455;-86
2021/01/29 04:44:03;;;;;;;16.80;7.45;;;;;;;;;;6283200;22;20024;-87
2021/01/29 04:46:29;;;;;;;16.42;7.47;;;;;;;;;;6282446;22;20024;-86
2021/01/29 04:48:59;;;;;;;16.25;8.63;;;;;;;;;;6283916;22;20024;-87
2021/01/29 04:51:32;;;;;;;10.98;7.18;;;;;;;;;;6282926;22;20035;-87
2021/01/29 04:53:59;;;;;;;11.23;6.50;;;;;;;;;;6281958;22;20023;-88
2021/01/29 04:56:47;;;;;;;11.30;7.57;;;;;;;;;;6281829;22;20100;-88
2021/01/29 04:59:32;;;;;;;12.23;7.03;;;;;;;;;;6281661;22;20377;-88
2021/01/29 05:02:25;;;;;;;15.57;7.35;;;;;;;;;;6290482;22;20055;-88
2021/01/29 05:05:09;;;;;;;14.15;7.13;;;;;;;;;;6283018;22;20038;-88
2021/01/29 05:07:48;;;;;;;12.98;6.90;;;;;;;;;;6278293;22;20092;-87
2021/01/29 05:10:22;;;;;;;12.40;8.25;;;;;;;;;;6279483;22;20416;-88
2021/01/29 05:13:01;;;;;;;11.90;7.30;;;;;;;;;;6282349;22;20023;-88
2021/01/29 05:15:47;;;;;;;12.90;7.22;;;;;;;;;;6280353;22;20111;-87
2021/01/29 05:18:24;;;;;;;13.27;6.30;;;;;;;;;;6294041;22;20016;-87
2021/01/29 05:20:56;;;;;;;11.02;5.85;;;;;;;;;;6299579;22;20019;-87
2021/01/29 05:23:44;;;;;;;10.60;5.85;;;;;;;;;;6297009;22;20038;-87
2021/01/29 05:26:33;;;;;;;14.50;6.25;;;;;;;;;;6284981;22;20027;-87
2021/01/29 05:29:23;;;;;;;11.68;5.35;;;;;;;;;;6282171;22;20299;-88
2021/01/29 05:31:53;;;;;;;12.57;5.43;;;;;;;;;;6297393;22;20046;-88
2021/01/29 05:34:21;;;;;;;9.18;4.63;;;;;;;;;;6301181;22;20027;-88
2021/01/29 05:36:48;;;;;;;10.73;5.05;;;;;;;;;;6286369;22;20023;-88
2021/01/29 05:39:15;;;;;;;9.57;4.35;;;;;;;;;;6283778;22;20054;-88
2021/01/29 05:41:59;;;;;;;17.35;4.70;;;;;;;;;;6281840;22;20035;-88
2021/01/29 05:44:35;;;;;;;6.43;4.20;;;;;;;;;;6281565;22;20062;-88
2021/01/29 05:47:23;;;;;;;6.03;3.88;;;;;;;;;;6280798;22;20050;-87
2021/01/29 05:50:08;;;;;;;10.55;4.03;;;;;;;;;;6282120;22;20023;-87
2021/01/29 05:52:58;;;;;;;10.35;4.35;;;;;;;;;;6281731;22;20457;-87
2021/01/29 05:55:44;;;;;;;7.22;4.78;;;;;;;;;;6284019;22;20053;-86
2021/01/29 05:58:39;;;;;;;9.73;4.03;;;;;;;;;;6283689;22;20319;-87
2021/01/29 06:01:11;;;;;;;8.35;4.05;;;;;;;;;;6285046;22;20529;-87
2021/01/29 06:03:54;;;;;;;6.00;3.53;;;;;;;;;;6284716;22;20609;-87
2021/01/29 06:06:40;;;;;;;10.50;4.68;;;;;;;;;;6284571;22;20474;-87
2021/01/29 06:09:34;;;;;;;7.07;3.90;;;;;;;;;;6284875;22;20027;-87
2021/01/29 06:12:10;;;;;;;14.18;5.03;;;;;;;;;;6296722;22;20095;-86
2021/01/29 06:14:43;;;;;;;11.25;4.88;;;;;;;;;;6297415;22;20034;-86
2021/01/29 06:17:13;;;;;;;6.18;3.53;;;;;;;;;;6295324;22;20034;-87
2021/01/29 06:19:54;;;;;;;8.20;4.10;;;;;;;;;;6295951;22;20050;-87
2021/01/29 06:22:40;;;;;;;5.78;3.35;;;;;;;;;;6292514;22;20104;-87
2021/01/29 06:25:24;;;;;;;8.70;4.20;;;;;;;;;;6294677;22;20043;-86
2021/01/29 06:27:57;;;;;;;11.50;4.10;;;;;;;;;;6293274;22;20062;-87
2021/01/29 06:30:23;;;;;;;10.25;4.70;;;;;;;;;;6288386;22;20317;-87
2021/01/29 06:33:03;;;;;;;8.77;5.32;;;;;;;;;;6289222;22;20034;-87
2021/01/29 06:35:54;;;;;;;9.32;4.95;;;;;;;;;;6283996;22;20400;-87
2021/01/29 06:38:53;;;;;;;10.70;5.00;;;;;;;;;;6279426;22;20119;-87
2021/01/29 06:41:46;;;;;;;13.20;5.18;;;;;;;;;;6265442;22;20058;-87
2021/01/29 06:44:18;;;;;;;7.45;4.07;;;;;;;;;;6278754;22;20028;-86
2021/01/29 06:47:04;;;;;;;8.75;4.70;;;;;;;;;;6278985;22;20070;-86
2021/01/29 06:49:50;;;;;;;7.55;4.35;;;;;;;;;;6277259;22;20128;-87
2021/01/29 06:52:30;;;;;;;12.60;5.25;;;;;;;;;;6276652;22;20035;-86
2021/01/29 06:55:11;;;;;;;10.80;5.53;;;;;;;;;;6281323;22;20093;-86
2021/01/29 06:58:05;;;;;;;7.32;4.97;;;;;;;;;;6281890;22;20149;-86
2021/01/29 07:00:42;;;;;;;9.82;4.80;;;;;;;;;;6279797;22;20082;-86
2021/01/29 07:03:28;;;;;;;7.70;4.68;;;;;;;;;;6279410;22;20071;-86
2021/01/29 07:06:17;;;;;;;9.05;4.75;;;;;;;;;;6277313;22;20038;-86
2021/01/29 07:08:54;;;;;;;8.02;4.20;;;;;;;;;;6282241;22;20082;-87
2021/01/29 07:11:30;;;;;;;10.27;4.97;;;;;;;;;;6279168;22;20034;-87
2021/01/29 07:14:16;;;;;;;9.57;4.53;;;;;;;;;;6282811;22;20024;-87
2021/01/29 07:16:52;;;;;;;9.25;4.80;;;;;;;;;;6281031;22;20494;-88
2021/01/29 07:19:31;;;;;;;6.78;4.28;;;;;;;;;;6282118;22;20081;-86
2021/01/29 07:21:57;;;;;;;9.65;4.72;;;;;;;;;;6293497;22;20051;-87
2021/01/29 07:27:54;;;;;;;9.55;4.63;;;;;;;;;;6298605;22;20063;-86
2021/01/29 07:30:46;;;;;;;8.50;5.82;;;;;;;;;;6283715;22;20035;-86
2021/01/29 07:33:26;;;;;;;6.55;4.95;;;;;;;;;;6279735;22;20032;-86
2021/01/29 07:36:22;;;;;;;7.30;4.97;;;;;;;;;;6296189;22;20031;-87
2021/01/29 07:39:23;;;;;;;;;;;;;;;;;;;;;
2021/01/29 07:42:31;;;;;;;9.02;4.57;;;;;;;;;;6290170;22;20027;-88
2021/01/29 07:45:21;;;;;;;7.53;4.90;;;;;;;;;;6288138;22;20027;-89
2021/01/29 07:47:56;;;;;;;14.23;6.30;;;;;;;;;;6297047;22;20012;-89
2021/01/29 07:50:52;;;;;;;9.23;5.05;;;;;;;;;;6297911;22;20026;-89
2021/01/29 07:53:53;;;;;;;8.82;4.95;;;;;;;;;;6292217;22;20035;-90
2021/01/29 07:56:41;;;;;;;10.18;5.05;;;;;;;;;;6285119;22;20027;-90
2021/01/29 07:59:42;;;;;;;10.20;5.22;;;;;;;;;;6294745;22;20039;-89
2021/01/29 08:31:16;;;;;;;9.77;6.03;;;;;;;;;;6268800;22;20034;-89
2021/01/29 08:34:13;;;;;;;11.52;4.85;;;;;;;;;;6260727;23;20032;-88
2021/01/29 08:37:28;;;;;;;9.73;5.00;;;;;;;;;;6245006;22;20080;-89
2021/01/29 08:40:26;;;;;;;9.75;6.20;;;;;;;;;;6244891;22;20018;-89
2021/01/29 08:43:16;;;;;;;10.85;6.13;;;;;;;;;;6265586;22;20024;-88
2021/01/29 08:46:06;;;;;;;14.57;5.28;;;;;;;;;;6231523;23;20217;-89
2021/01/29 08:48:54;;;;;;;6.85;4.60;;;;;;;;;;6231829;23;20028;-89
2021/01/29 08:51:27;;;;;;;14.20;6.20;;;;;;;;;;6254735;23;20054;-88
2021/01/29 08:54:23;;;;;;;8.70;5.82;;;;;;;;;;6258720;23;20615;-88
2021/01/29 08:56:55;;;;;;;13.65;5.65;;;;;;;;;;6239164;23;20468;-87
2021/01/29 08:59:29;;;;;;;10.02;5.35;;;;;;;;;;6266551;22;20036;-87
2021/01/29 09:01:59;;;;;;;11.60;5.93;;;;;;;;;;6238916;22;20200;-86
2021/01/29 09:04:43;;;;;;;7.78;5.30;;;;;;;;;;6267954;22;20055;-91
2021/01/29 09:07:41;;;;;;;9.38;6.35;;;;;;;;;;6263898;22;20035;-87
2021/01/29 09:10:15;;;;;;;8.95;5.18;;;;;;;;;;6267921;22;20026;-87
2021/01/29 09:12:44;;;;;;;8.50;5.20;;;;;;;;;;6268361;22;20295;-87
2021/01/29 09:15:37;;;;;;;9.30;6.00;;;;;;;;;;6240474;22;20034;-87
2021/01/29 09:18:23;;;;;;;9.93;5.78;;;;;;;;;;6266957;22;20023;-85
2021/01/29 09:21:24;;;;;;;10.43;6.45;;;;;;;;;;6263302;22;20078;-86
2021/01/29 09:23:54;;;;;;;11.45;5.88;;;;;;;;;;6233987;23;20024;-87
2021/01/29 09:26:42;;;;;;;8.55;6.35;;;;;;;;;;6258035;23;20031;-86
2021/01/29 09:29:10;;;;;;;8.85;5.10;;;;;;;;;;6258584;23;20024;-85
2021/01/29 09:31:42;;;;;;;9.38;6.68;;;;;;;;;;6225166;23;20161;-85
2021/01/29 09:34:12;;;;;;;10.43;6.20;;;;;;;;;;6252973;23;20024;-85
2021/01/29 09:36:51;;;;;;;15.07;6.47;;;;;;;;;;6249696;23;20482;-86
2021/01/29 09:39:44;;;;;;;12.90;7.38;;;;;;;;;;6233091;23;20024;-86
2021/01/29 09:42:36;;;;;;;11.23;6.13;;;;;;;;;;6226313;23;20169;-86
2021/01/29 09:45:06;;;;;;;12.48;6.50;;;;;;;;;;6223389;23;20091;-86
2021/01/29 09:47:39;;;;;;;11.98;7.13;;;;;;;;;;6227700;23;20035;-87
2021/01/29 09:50:16;;;;;;;11.88;7.65;;;;;;;;;;6248499;23;20024;-87
2021/01/29 09:52:46;;;;;;;8.67;5.77;;;;;;;;;;6224578;23;20281;-88
2021/01/29 09:59:03;;;;;;;17.40;7.60;;;;;;;;;;6251827;23;20028;-87
2021/01/29 10:01:34;;;;;;;13.55;7.55;;;;;;;;;;6233123;22;20110;-87
2021/01/29 10:04:11;;;;;;;13.60;6.55;;;;;;;;;;6263830;23;20031;-86
2021/01/29 10:06:49;;;;;;;13.85;6.93;;;;;;;;;;6233595;23;20024;-87
2021/01/29 10:09:37;;;;;;;12.30;7.45;;;;;;;;;;6231401;23;20028;-87
2021/01/29 10:12:27;;;;;;;6.38;4.57;;;;;;;;;;6230080;23;20035;-85
2021/01/29 10:15:29;;;;;;;10.85;7.40;;;;;;;;;;6228596;23;20317;-87
2021/01/29 10:18:29;;;;;;;10.55;6.68;;;;;;;;;;6166664;23;20054;-85
2021/01/29 10:21:22;;;;;;;16.55;8.15;;;;;;;;;;6233374;23;20055;-85
2021/01/29 10:27:38;;;;;;;16.20;8.00;;;;;;;;;;6254733;22;20020;-84
2021/01/29 10:30:25;;;;;;;10.68;7.13;;;;;;;;;;6237573;23;20034;-85
2021/01/29 10:33:19;;;;;;;12.95;7.47;;;;;;;;;;6248943;23;20027;-84
2021/01/29 10:36:16;;;;;;;11.55;6.25;;;;;;;;;;6264884;22;20016;-85
2021/01/29 10:38:58;;;;;;;11.65;7.00;;;;;;;;;;6258226;22;20172;-85
2021/01/29 10:41:35;;;;;;;7.88;5.25;;;;;;;;;;6250318;22;20024;-84
2021/01/29 10:44:12;;;;;;;9.55;6.20;;;;;;;;;;6247924;22;20024;-84
2021/01/29 10:46:46;;;;;;;10.32;7.00;;;;;;;;;;6246732;23;20024;-83
2021/01/29 10:49:12;;;;;;;9.90;5.95;;;;;;;;;;6246287;23;20024;-85
2021/01/29 10:51:54;;;;;;;11.10;7.15;;;;;;;;;;6245107;23;20102;-85
2021/01/29 10:54:24;;;;;;;11.95;7.47;;;;;;;;;;6249543;23;20024;-85
2021/01/29 10:57:15;;;;;;;12.02;6.80;;;;;;;;;;6248452;23;20290;-85
2021/01/29 11:00:15;;;;;;;14.68;7.80;;;;;;;;;;6256619;23;20103;-84
2021/01/29 11:02:47;;;;;;;9.40;6.70;;;;;;;;;;6259812;22;20024;-86
2021/01/29 11:05:29;;;;;;;11.43;7.00;;;;;;;;;;6258286;23;20186;-86
2021/01/29 11:08:09;;;;;;;9.45;6.03;;;;;;;;;;6251130;23;20301;-85
2021/01/29 11:11:16;;;;;;;8.77;6.05;;;;;;;;;;6248322;23;20055;-85
2021/01/29 11:14:01;;;;;;;9.75;6.50;;;;;;;;;;6251521;23;20012;-85
2021/01/29 11:16:54;;;;;;;8.57;6.63;;;;;;;;;;6257270;22;20020;-84
2021/01/29 11:19:23;;;;;;;9.57;7.15;;;;;;;;;;6256163;23;20012;-84
2021/01/29 11:22:20;;;;;;;8.52;5.80;;;;;;;;;;6249232;23;20076;-84
2021/01/29 11:25:23;;;;;;;11.23;6.32;;;;;;;;;;6246865;23;20024;-84
2021/01/29 11:28:16;;;;;;;9.90;6.53;;;;;;;;;;6249872;23;20302;-85
2021/01/29 11:31:22;;;;;;;10.27;7.05;;;;;;;;;;6249322;22;20028;-85
2021/01/29 11:34:03;;;;;;;10.15;6.25;;;;;;;;;;6212428;23;20020;-84
2021/01/29 11:36:40;;;;;;;9.85;6.18;;;;;;;;;;6226732;23;20058;-84
2021/01/29 11:39:31;;;;;;;9.35;6.93;;;;;;;;;;6229129;23;20016;-84
2021/01/29 11:42:35;;;;;;;9.90;6.63;;;;;;;;;;6231248;23;20016;-83
2021/01/29 11:45:30;;;;;;;8.60;6.28;;;;;;;;;;6227582;23;20016;-85
2021/01/29 11:48:18;;;;;;;10.35;6.60;;;;;;;;;;6232897;23;20206;-86
2021/01/29 11:51:14;;;;;;;10.32;6.18;;;;;;;;;;6254223;23;20195;-85
2021/01/29 11:54:07;;;;;;;10.05;6.32;;;;;;;;;;6096781;23;20256;-85
2021/01/29 11:56:59;;;;;;;12.32;6.78;;;;;;;;;;6074887;23;20027;-85
2021/01/29 11:59:37;;;;;;;11.43;7.03;;;;;;;;;;6249124;23;20028;-85
2021/01/29 12:02:25;;;;;;;9.45;6.57;;;;;;;;;;6250477;23;20193;-85
2021/01/29 12:05:22;;;;;;;9.82;6.88;;;;;;;;;;6224177;23;20091;-85
2021/01/29 12:08:06;;;;;;;10.90;7.00;;;;;;;;;;6251359;23;20076;-84
2021/01/29 12:13:57;;;;;;;11.18;7.03;;;;;;;;;;6249873;23;20308;-84
2021/01/29 12:16:25;;;;;;;9.45;7.32;;;;;;;;;;6251009;23;20212;-83
2021/01/29 12:19:07;;;;;;;13.25;6.18;;;;;;;;;;6252160;23;20036;-83
2021/01/29 12:21:39;;;;;;;9.25;5.93;;;;;;;;;;6253657;23;20035;-84
2021/01/29 12:24:39;;;;;;;9.52;6.18;;;;;;;;;;6230765;23;20099;-84
2021/01/29 12:27:05;;;;;;;11.00;5.88;;;;;;;;;;6256711;23;20016;-84
2021/01/29 12:29:46;;;;;;;15.27;6.53;;;;;;;;;;6254235;23;20028;-84
2021/01/29 12:32:26;;;;;;;9.35;6.07;;;;;;;;;;6253282;23;20034;-84
2021/01/29 12:34:56;;;;;;;9.70;5.50;;;;;;;;;;6237528;22;20027;-83
2021/01/29 12:37:36;;;;;;;9.00;6.03;;;;;;;;;;6239032;23;20016;-84
2021/01/29 12:40:05;;;;;;;7.32;5.55;;;;;;;;;;6228172;23;20371;-84
2021/01/29 12:42:48;;;;;;;12.25;6.63;;;;;;;;;;6225116;23;20238;-84
2021/01/29 12:45:28;;;;;;;8.13;5.47;;;;;;;;;;6225681;23;20051;-84
2021/01/29 12:48:07;;;;;;;9.63;5.45;;;;;;;;;;6261585;23;20024;-84
2021/01/29 12:50:46;;;;;;;9.35;5.93;;;;;;;;;;6253948;23;20039;-83
2021/01/29 12:53:39;;;;;;;8.90;4.97;;;;;;;;;;6225112;23;20031;-83
2021/01/29 12:56:29;;;;;;;7.13;4.93;;;;;;;;;;6103126;23;20050;-84
2021/01/29 12:59:01;;;;;;;6.22;4.75;;;;;;;;;;6104780;23;20206;-83
2021/01/29 13:01:52;;;;;;;8.90;5.38;;;;;;;;;;6200631;23;20039;-83
2021/01/29 13:04:21;;;;;;;8.25;5.65;;;;;;;;;;6250068;23;20232;-83
2021/01/29 13:06:51;;;;;;;10.00;6.55;;;;;;;;;;6255854;23;20028;-83
2021/01/29 13:12:33;;;;;;;5.22;4.13;;;;;;;;;;6246685;23;20040;-83
2021/01/29 13:15:02;;;;;;;6.25;4.32;;;;;;;;;;6246225;23;20028;-83
2021/01/29 13:17:35;;;;;;;7.57;4.88;;;;;;;;;;6254036;23;20054;-83
2021/01/29 13:20:16;;;;;;;6.10;4.55;;;;;;;;;;6251753;23;20218;-82
2021/01/29 13:22:47;;;;;;;7.93;4.95;;;;;;;;;;6260145;22;20039;-84
2021/01/29 13:25:19;;;;;;;7.95;4.60;;;;;;;;;;6260840;23;20024;-83
2021/01/29 13:27:49;;;;;;;6.50;4.35;;;;;;;;;;6229836;23;20028;-83
2021/01/29 13:30:22;;;;;;;7.13;4.68;;;;;;;;;;6252366;23;20028;-83
2021/01/29 13:32:52;;;;;;;14.85;5.80;;;;;;;;;;6244380;23;20417;-83
2021/01/29 13:35:27;;;;;;;6.07;4.45;;;;;;;;;;6243161;23;20024;-84
2021/01/29 13:38:11;;;;;;;6.60;4.55;;;;;;;;;;6229482;23;20022;-83
2021/01/29 13:40:38;;;;;;;8.00;4.32;;;;;;;;;;6245453;23;20028;-83
2021/01/29 13:43:12;;;;;;;6.95;4.55;;;;;;;;;;6248073;23;20028;-84
2021/01/29 13:45:44;;;;;;;8.07;4.63;;;;;;;;;;6218424;23;20080;-84
2021/01/29 13:48:13;;;;;;;7.15;4.45;;;;;;;;;;6216390;23;20038;-84
2021/01/29 13:50:49;;;;;;;6.22;4.38;;;;;;;;;;6220744;23;20373;-84
2021/01/29 13:53:32;;;;;;;6.78;4.35;;;;;;;;;;6215327;23;20507;-84
2021/01/29 13:56:04;;;;;;;6.25;4.97;;;;;;;;;;6217548;23;20024;-83
2021/01/29 13:58:36;;;;;;;6.90;4.70;;;;;;;;;;6246097;23;20012;-84
2021/01/29 14:01:27;;;;;;;;;;;;;;;;;;;;;
2021/01/29 14:04:22;;;;;;;7.97;5.68;;;;;;;;;;6246406;23;20028;-84
2021/01/29 14:06:52;;;;;;;8.18;5.03;;;;;;;;;;6244246;23;20024;-83
2021/01/29 14:09:18;;;;;;;8.38;5.22;;;;;;;;;;6219700;23;20036;-83
2021/01/29 14:12:11;;;;;;;8.27;4.97;;;;;;;;;;6245929;23;20036;-84
2021/01/29 14:15:02;;;;;;;12.02;5.60;;;;;;;;;;6246702;23;20032;-83
2021/01/29 14:17:49;;;;;;;6.63;5.30;;;;;;;;;;6223287;23;20016;-83
2021/01/29 14:20:19;;;;;;;6.20;4.72;;;;;;;;;;6251717;23;20059;-83
2021/01/29 14:22:56;;;;;;;7.15;4.30;;;;;;;;;;6248049;23;20048;-84
2021/01/29 14:25:44;;;;;;;7.05;4.68;;;;;;;;;;6245831;23;20038;-84
2021/01/29 14:28:17;;;;;;;6.53;4.10;;;;;;;;;;6219735;23;20329;-83
2021/01/29 14:31:07;;;;;;;8.25;4.53;;;;;;;;;;6245823;23;20082;-84
2021/01/29 14:33:54;;;;;;;6.78;4.75;;;;;;;;;;6177226;23;20282;-84
2021/01/29 14:36:41;;;;;;;5.63;4.97;;;;;;;;;;6218324;23;20111;-84
2021/01/29 14:39:30;;;;;;;6.97;5.13;;;;;;;;;;6248853;23;20024;-84
2021/01/29 14:42:09;;;;;;;5.30;4.80;;;;;;;;;;6243828;23;20040;-84
2021/01/29 14:44:42;;;;;;;4.65;3.47;;;;;;;;;;6246867;23;20349;-86
2021/01/29 14:47:18;;;;;;;6.90;4.43;;;;;;;;;;6243669;23;20106;-85
2021/01/29 14:50:18;;;;;;;6.20;4.57;;;;;;;;;;6245436;23;20043;-84
2021/01/29 14:53:14;;;;;;;4.38;3.42;;;;;;;;;;6227855;23;20166;-85
2021/01/29 14:55:53;;;;;;;4.13;3.03;;;;;;;;;;6240070;23;20402;-85
2021/01/29 14:58:24;;;;;;;3.65;2.80;;;;;;;;;;6220578;23;20032;-85
2021/01/29 15:00:53;;;;;;;6.15;3.70;;;;;;;;;;6218423;23;20111;-85
2021/01/29 15:03:28;;;;;;;5.78;3.92;;;;;;;;;;6243211;23;20055;-85
2021/01/29 15:05:56;;;;;;;4.65;3.45;;;;;;;;;;6243465;23;20043;-84
2021/01/29 15:08:32;;;;;;;7.82;3.25;;;;;;;;;;6242634;23;20035;-85
2021/01/29 15:11:10;;;;;;;5.93;3.15;;;;;;;;;;6241056;23;20032;-86
2021/01/29 15:13:49;;;;;;;5.30;3.60;;;;;;;;;;6215747;23;20088;-85
2021/01/29 15:16:36;;;;;;;4.45;3.30;;;;;;;;;;6243023;23;20105;-86
2021/01/29 15:19:23;;;;;;;3.85;2.78;;;;;;;;;;6213362;23;20024;-85
2021/01/29 15:21:50;;;;;;;3.90;2.85;;;;;;;;;;6213850;23;20020;-85
2021/01/29 15:24:25;;;;;;;6.03;3.42;;;;;;;;;;6228424;23;20032;-85
2021/01/29 15:27:04;;;;;;;3.70;3.28;;;;;;;;;;6264218;23;20040;-84
2021/01/29 15:29:42;;;;;;;3.72;3.20;;;;;;;;;;6262867;22;20035;-85
2021/01/29 15:32:20;;;;;;;3.83;2.95;;;;;;;;;;6263193;22;20016;-84
2021/01/29 15:34:59;;;;;;;3.72;2.60;;;;;;;;;;6260175;22;20036;-84
2021/01/29 15:37:47;;;;;;;3.95;2.35;;;;;;;;;;6233574;23;20031;-85
2021/01/29 15:40:19;;;;;;;3.17;2.50;;;;;;;;;;6254163;23;20054;-84
2021/01/29 15:42:47;;;;;;;4.55;2.85;;;;;;;;;;6221442;23;20098;-85
2021/01/29 15:45:24;;;;;;;3.80;2.58;;;;;;;;;;6221582;23;20420;-85
2021/01/29 15:48:02;;;;;;;4.22;2.63;;;;;;;;;;6249270;23;20028;-85
2021/01/29 15:50:48;;;;;;;4.37;2.63;;;;;;;;;;6216903;23;20063;-85
2021/01/29 15:53:34;;;;;;;5.88;2.80;;;;;;;;;;6217650;23;20411;-85
2021/01/29 15:56:12;;;;;;;4.03;2.47;;;;;;;;;;6218494;23;20024;-85
2021/01/29 15:58:38;;;;;;;8.18;3.53;;;;;;;;;;6241243;23;20030;-85
2021/01/29 16:01:05;;;;;;;4.63;3.10;;;;;;;;;;6217301;23;20217;-85
2021/01/29 16:03:40;;;;;;;5.85;2.63;;;;;;;;;;6219714;23;20038;-85
2021/01/29 16:06:14;;;;;;;6.00;3.63;;;;;;;;;;6243933;23;20028;-85
2021/01/29 16:08:40;;;;;;;6.32;3.10;;;;;;;;;;6224771;23;20016;-85
2021/01/29 16:11:32;;;;;;;5.55;3.50;;;;;;;;;;6261628;22;20086;-85
2021/01/29 16:14:06;;;;;;;5.28;3.22;;;;;;;;;;6262032;22;20016;-85
2021/01/29 16:16:34;;;;;;;;;;;;;;;;;;6263144;23;20024;-85
2021/01/29 16:19:03;;;;;;;5.35;3.13;;;;;;;;;;6248438;23;20081;-85
2021/01/29 16:21:38;;;;;;;4.70;2.90;;;;;;;;;;6249267;23;20083;-84
2021/01/29 16:24:16;;;;;;;13.43;4.82;;;;;;;;;;6252790;22;20336;-84
2021/01/29 16:26:47;;;;;;;5.25;3.22;;;;;;;;;;6263059;22;20024;-84
2021/01/29 16:29:15;;;;;;;7.13;3.80;;;;;;;;;;6253279;22;20034;-84
2021/01/29 16:31:43;;;;;;;5.60;3.90;;;;;;;;;;6245630;23;20231;-83
2021/01/29 16:34:09;;;;;;;4.15;3.10;;;;;;;;;;6243714;23;20043;-84
2021/01/29 16:36:36;;;;;;;3.08;2.55;;;;;;;;;;6215966;23;20024;-84